»·PEaware :: N3891R KBFL-KVNY

N3891R :: KBFL-KVNY

FLIGHT INFORMATION

Flight Status: Arrived
Operator: Privately registered:
United States
More flights under this callsign
Pilot: Markus B. (22479)
Aircraft: BEECH AIRCRAFT BARON
(BE58)
More flights by this aircraft type
Origin: KBFL Meadows
United States
Destination: KVNY Van Nuys
United States
More flights between these airports :: More routes between these airports
Route: +MEADO3 LHS LYNXX8
File this flight plan on PilotEdge
Remarks:
Altitude:
(Current/Filed)
9,000ft
Speed:
(Current/Filed)
170kts
Departed: 13-Jul-19 11:07 AM
Arrived: 13-Jul-19 11:52 AM
Distance/Time
Traveled:
79nm/0:45
Distance/Time
To Go:
Arrived

Flight Plot

Page will automatically refresh every two minutes.

Flight plan parsing failed; only flown route is shown


Map Options




Map Legend


Flown Route
Filed Route
Departure Airport
Arrival Airport
Navaid (VOR, NDB)
Fix

Horizontal Profiles

Position Reports

Time Latitude Longitude Heading Altitude Ground
Speed
13-Jul-19 10:47 35.430419 -119.046839 229 510ft 0kts
13-Jul-19 10:48 35.430419 -119.046839 229 510ft 0kts
13-Jul-19 10:49 35.430419 -119.046839 229 510ft 0kts
13-Jul-19 10:50 35.430419 -119.046839 229 510ft 0kts
13-Jul-19 10:51 35.430419 -119.046839 229 510ft 0kts
13-Jul-19 10:52 35.430419 -119.046839 229 510ft 0kts
13-Jul-19 10:53 35.430419 -119.046839 229 510ft 0kts
13-Jul-19 10:54 35.430419 -119.046839 229 510ft 0kts
13-Jul-19 10:55 35.430419 -119.046839 229 510ft 0kts
13-Jul-19 10:56 35.430419 -119.046839 229 510ft 0kts
13-Jul-19 10:57 35.430419 -119.046839 229 510ft 0kts
13-Jul-19 10:58 35.430419 -119.046839 229 510ft 0kts
13-Jul-19 10:59 35.430314 -119.046981 226 510ft 3kts
13-Jul-19 11:00 35.428818 -119.046534 141 510ft 10kts
13-Jul-19 11:01 35.426833 -119.044209 137 510ft 14kts
13-Jul-19 11:02 35.424613 -119.043343 175 510ft 0kts
13-Jul-19 11:03 35.425541 -119.044641 262 510ft 15kts
13-Jul-19 11:04 35.425694 -119.044742 240 510ft 0kts
13-Jul-19 11:05 35.425694 -119.044742 240 510ft 0kts
13-Jul-19 11:05 35.425694 -119.044742 240 510ft 0kts
13-Jul-19 11:06 35.434598 -119.056671 317 687ft 121kts
13-Jul-19 11:08 35.459302 -119.089786 313 2563ft 109kts
13-Jul-19 11:08 35.476186 -119.112293 313 3763ft 110kts
13-Jul-19 11:09 35.490922 -119.096312 134 5319ft 114kts
13-Jul-19 11:10 35.477511 -119.113305 319 6773ft 112kts
13-Jul-19 11:11 35.499188 -119.137365 265 8099ft 111kts
13-Jul-19 11:12 35.477119 -119.138406 134 9310ft 110kts
13-Jul-19 11:13 35.447223 -119.113303 150 9159ft 186kts
13-Jul-19 11:14 35.403140 -119.082312 150 9091ft 180kts
13-Jul-19 11:15 35.359896 -119.051709 150 9092ft 179kts
13-Jul-19 11:16 35.316708 -119.021166 150 9092ft 178kts
13-Jul-19 11:17 35.273518 -118.990660 150 9092ft 178kts
13-Jul-19 11:18 35.230392 -118.960235 150 9092ft 178kts
13-Jul-19 11:19 35.187484 -118.929762 151 9093ft 178kts
13-Jul-19 11:20 35.144200 -118.899541 150 9092ft 178kts
13-Jul-19 11:21 35.101064 -118.869246 150 9092ft 178kts
13-Jul-19 11:22 35.057738 -118.838834 150 9092ft 178kts
13-Jul-19 11:23 35.014377 -118.808438 150 9033ft 181kts
13-Jul-19 11:24 34.970958 -118.778030 150 9027ft 179kts
13-Jul-19 11:25 34.927729 -118.747794 150 9028ft 179kts
13-Jul-19 11:26 34.884933 -118.717904 150 9028ft 178kts
13-Jul-19 11:27 34.843160 -118.688756 150 9028ft 179kts
13-Jul-19 11:28 34.799604 -118.658404 150 9028ft 179kts
13-Jul-19 11:29 34.756223 -118.628210 150 9028ft 179kts
13-Jul-19 11:30 34.712738 -118.597980 150 9028ft 180kts
13-Jul-19 11:31 34.666226 -118.579568 181 9030ft 179kts
13-Jul-19 11:32 34.616461 -118.584153 185 9028ft 180kts
13-Jul-19 11:33 34.566462 -118.589438 185 9028ft 180kts
13-Jul-19 11:34 34.516650 -118.594710 184 9035ft 180kts
13-Jul-19 11:35 34.471640 -118.598505 184 7820ft 145kts
13-Jul-19 11:36 34.435385 -118.605685 232 6360ft 130kts
13-Jul-19 11:37 34.448394 -118.629885 33 5383ft 132kts
13-Jul-19 11:38 34.457815 -118.588331 72 5277ft 129kts
13-Jul-19 11:39 34.468487 -118.547250 72 5265ft 125kts
13-Jul-19 11:40 34.478914 -118.507174 72 5265ft 124kts
13-Jul-19 11:41 34.498951 -118.479838 340 5260ft 123kts
13-Jul-19 11:42 34.493249 -118.507892 190 5267ft 123kts
13-Jul-19 11:43 34.459426 -118.514981 177 5265ft 124kts
13-Jul-19 11:44 34.424937 -118.511275 173 5265ft 124kts
13-Jul-19 11:45 34.390464 -118.507719 177 5265ft 124kts
13-Jul-19 11:46 34.354380 -118.504861 175 4829ft 134kts
13-Jul-19 11:47 34.321823 -118.501383 175 3632ft 111kts
13-Jul-19 11:48 34.293345 -118.497788 174 2735ft 100kts
13-Jul-19 11:49 34.261165 -118.497524 177 2269ft 125kts
13-Jul-19 11:50 34.223766 -118.491531 175 1057ft 139kts
13-Jul-19 11:51 34.205780 -118.490073 184 806ft 25kts
13-Jul-19 11:52 34.202829 -118.491623 123 806ft 0kts

Navigation Log

Ident Type
Flight plan parsing failed, navigation log unavailable